Pagrindinis puslapis
METAR-TAF:

METAR-TAF

Oro uostai :

Stokholmas-Arlanda, Švedija

platuma: 59-39N, ilguma: 017-57E, Aukštis: 38 m

Dabartinis oras

Ataskaita buvo paskelbta 20 minutes, ne 23:20 UTC
Vėjas 4 kt iš Pietų
Temperatūra 0°C
Drėgmė 93%
Slėgis 1028 hPa
Matomumas 10 km arba daugiau
nėra debesų žemiau 1500 m ir nėra kamuolinių lietaus debesų

METAR: ESSA 072320Z 19004KT CAVOK 00/M01 Q1028 R01L/19//95 R01R/19//95 R08/0///95 NOSIG

Laikas: 01:40 (23:40 UTC)

Prognozė

Ataskaita buvo paskelbta 10 minutes, ne 23:30 UTC
Prognozė galioja nuo 08 metu 00 UTC su 08 metu 24 UTC
Vėjas 4 kt iš Pietvakarių
Matomumas 10 km arba daugiau
nėra debesų žemiau 1500 m ir nėra kamuolinių lietaus debesų
Tapsmas
nuo 08 metu 07 UTC su 08 metu 09 UTC
Vėjas 15 kt iš Vakarų/Pietvakarių su gūsio iki 25 kt
Tapsmas
nuo 08 metu 21 UTC su 08 metu 24 UTC
Vėjas 8 kt iš Vakarų/Šiaurės Vakarų

TAF: ESSA 072330Z 0800/0824 22004KT CAVOK BECMG 0807/0809 25015G25KT BECMG 0821/0824 29008KT

Orai ataskaitas ir orų prognozės (METAR, TAF).

turimą stotys yra geltonos ir raudonos taškus žemėlapyje.

Perkelti pele per norėdami pamatyti stoties vardą.

Tada spustelėkite, norėdami matyti oro stebėjimo ir prognozės.

Norėdami pakeisti žemėlapį: spustelėkite ant žalios mygtukų su juodo kryžiaus žemyn,; žalią mygtuką su brūkšneliu, jei norite nutolinti; arba žalių rodyklių gretimoms žemėlapius.


METAR-TAF: